createdAt,value
2022-10-05T00:01:41.298Z,95.09
2022-10-05T00:04:12.043Z,95.21
2022-10-05T00:06:38.867Z,95.06
2022-10-05T00:09:13.320Z,95.19
2022-10-05T00:11:40.013Z,95.18
2022-10-05T00:14:27.771Z,95.14
2022-10-05T00:16:55.722Z,95.22
2022-10-05T00:19:28.626Z,95.01
2022-10-05T00:22:30.238Z,95.05
2022-10-05T00:24:58.884Z,95.18
2022-10-05T00:27:27.352Z,95.20
2022-10-05T00:29:54.695Z,94.97
2022-10-05T00:32:21.358Z,94.82
2022-10-05T00:34:48.044Z,94.77
2022-10-05T00:37:14.730Z,94.99
2022-10-05T00:39:41.547Z,94.78
2022-10-05T00:42:27.976Z,94.69
2022-10-05T00:44:55.425Z,94.65
2022-10-05T00:47:31.318Z,94.63
2022-10-05T00:50:17.988Z,94.68
2022-10-05T00:53:02.956Z,94.57
2022-10-05T00:55:44.990Z,94.48
2022-10-05T00:58:30.555Z,94.44
2022-10-05T01:01:09.585Z,94.46
2022-10-05T01:03:42.308Z,94.27
2022-10-05T01:06:31.597Z,94.22
2022-10-05T01:09:20.420Z,94.13
2022-10-05T01:12:03.057Z,93.96
2022-10-05T01:14:39.379Z,93.78
2022-10-05T01:17:10.988Z,93.56
2022-10-05T01:19:51.180Z,93.55
2022-10-05T01:22:27.190Z,93.53
2022-10-05T01:25:06.348Z,93.28
2022-10-05T01:27:54.876Z,93.20
2022-10-05T01:30:21.737Z,93.24
2022-10-05T01:33:00.091Z,92.99
2022-10-05T01:35:30.716Z,92.80
2022-10-05T01:38:22.855Z,92.69
2022-10-05T01:41:19.787Z,92.52
2022-10-05T01:43:51.129Z,92.37
2022-10-05T01:46:53.540Z,92.39
2022-10-05T01:49:35.301Z,92.18
2022-10-05T01:52:11.377Z,92.01
2022-10-05T01:54:50.217Z,92.02
2022-10-05T01:57:54.655Z,92.08
2022-10-05T02:00:21.524Z,91.76
2022-10-05T02:02:52.978Z,91.86
2022-10-05T02:05:21.523Z,91.99
2022-10-05T02:08:00.433Z,91.76
2022-10-05T02:10:48.484Z,91.72
2022-10-05T02:13:18.627Z,91.70
2022-10-05T02:15:48.197Z,91.54
2022-10-05T02:18:20.057Z,91.64
2022-10-05T02:20:46.790Z,91.56
2022-10-05T02:23:25.536Z,91.61
2022-10-05T02:25:52.789Z,91.46
2022-10-05T02:28:27.492Z,91.51
2022-10-05T02:31:05.113Z,91.38
2022-10-05T02:33:33.304Z,91.53
2022-10-05T02:36:16.625Z,91.49
2022-10-05T02:38:54.400Z,91.55
2022-10-05T02:42:00.442Z,91.34
2022-10-05T02:44:33.724Z,91.34
2022-10-05T02:47:12.755Z,91.54
2022-10-05T02:49:45.005Z,91.66
2022-10-05T02:52:19.048Z,91.59
2022-10-05T02:55:04.731Z,91.57
2022-10-05T02:57:40.351Z,91.45
2022-10-05T03:00:15.959Z,91.49
2022-10-05T03:03:09.643Z,91.58
2022-10-05T03:05:39.524Z,91.48
2022-10-05T03:08:29.681Z,91.56
2022-10-05T03:11:22.626Z,91.59
2022-10-05T03:14:09.611Z,91.55
2022-10-05T03:17:01.626Z,91.42
2022-10-05T03:19:51.229Z,91.29
2022-10-05T03:22:41.089Z,91.28
2022-10-05T03:25:26.124Z,91.33
2022-10-05T03:28:17.124Z,91.19
2022-10-05T03:31:20.972Z,91.30
2022-10-05T03:34:02.121Z,91.33
2022-10-05T03:37:07.462Z,91.32
2022-10-05T03:39:39.314Z,91.27
2022-10-05T03:42:24.943Z,91.24
2022-10-05T03:45:05.715Z,91.30
2022-10-05T03:47:51.110Z,91.25
2022-10-05T03:50:40.660Z,91.09
2022-10-05T03:53:23.464Z,90.97
2022-10-05T03:55:52.207Z,91.10
2022-10-05T03:58:31.731Z,91.15
2022-10-05T04:01:03.973Z,90.99
2022-10-05T04:03:43.393Z,90.98
2022-10-05T04:06:13.550Z,90.95
2022-10-05T04:08:50.763Z,90.92
2022-10-05T04:11:26.841Z,91.06
2022-10-05T04:14:16.050Z,90.85
2022-10-05T04:16:47.403Z,90.87
2022-10-05T04:19:19.194Z,90.99
2022-10-05T04:21:57.801Z,91.04
2022-10-05T04:24:28.820Z,90.96
2022-10-05T04:27:04.060Z,91.03
2022-10-05T04:29:32.775Z,91.10
2022-10-05T04:32:27.349Z,91.19
2022-10-05T04:35:03.260Z,90.95
2022-10-05T04:38:07.483Z,91.05
2022-10-05T04:40:41.693Z,91.21
2022-10-05T04:43:18.586Z,91.35
2022-10-05T04:46:07.312Z,91.36
2022-10-05T04:49:13.198Z,91.63
2022-10-05T04:51:51.005Z,91.68
2022-10-05T04:54:52.778Z,91.87
2022-10-05T04:57:38.465Z,91.92
2022-10-05T05:00:26.240Z,91.97
2022-10-05T05:03:20.293Z,92.11
2022-10-05T05:06:16.474Z,92.06
2022-10-05T05:08:58.078Z,92.01
2022-10-05T05:11:51.899Z,92.06
2022-10-05T05:14:38.588Z,92.08
2022-10-05T05:17:18.966Z,92.14
2022-10-05T05:20:20.666Z,92.17
2022-10-05T05:23:03.980Z,92.06
2022-10-05T05:26:05.598Z,92.01
2022-10-05T05:28:51.730Z,91.91
2022-10-05T05:31:38.266Z,91.97
2022-10-05T05:34:43.516Z,91.85
2022-10-05T05:37:19.048Z,91.75
2022-10-05T05:39:55.061Z,91.64
2022-10-05T05:42:45.285Z,91.33
2022-10-05T05:45:17.780Z,91.25
2022-10-05T05:47:52.039Z,91.28
2022-10-05T05:50:34.803Z,91.02
2022-10-05T05:53:24.352Z,90.97
2022-10-05T05:56:22.216Z,90.70
2022-10-05T05:58:52.681Z,90.44
2022-10-05T06:01:32.882Z,90.29
2022-10-05T06:04:03.842Z,90.21
2022-10-05T06:06:31.776Z,90.01
2022-10-05T06:09:01.447Z,89.84
2022-10-05T06:11:43.272Z,89.61
2022-10-05T06:14:16.386Z,89.30
2022-10-05T06:16:50.178Z,88.90
2022-10-05T06:19:18.612Z,88.47
2022-10-05T06:21:52.602Z,88.52
2022-10-05T06:24:36.666Z,88.33
2022-10-05T06:27:22.820Z,88.05
2022-10-05T06:29:54.528Z,87.98
2022-10-05T06:32:29.521Z,87.85
2022-10-05T06:35:10.880Z,87.60
2022-10-05T06:37:40.771Z,87.41
2022-10-05T06:40:11.582Z,86.70
2022-10-05T06:42:46.812Z,86.14
2022-10-05T06:45:47.062Z,86.40
2022-10-05T06:48:46.356Z,86.27
2022-10-05T06:51:47.738Z,86.14
2022-10-05T06:54:22.036Z,85.80
2022-10-05T06:57:12.525Z,85.65
2022-10-05T06:59:55.961Z,85.57
2022-10-05T07:02:30.971Z,85.41
2022-10-05T07:05:07.803Z,84.77
2022-10-05T07:07:52.707Z,84.61
2022-10-05T07:10:35.083Z,84.31
2022-10-05T07:13:09.472Z,83.91
2022-10-05T07:15:42.077Z,83.65
2022-10-05T07:18:18.983Z,83.32
2022-10-05T07:21:15.224Z,82.95
2022-10-05T07:23:44.921Z,82.82
2022-10-05T07:26:17.717Z,83.10
2022-10-05T07:28:48.272Z,82.85
2022-10-05T07:31:18.719Z,82.21
2022-10-05T07:33:48.640Z,81.90
2022-10-05T07:36:55.059Z,81.53
2022-10-05T07:40:00.067Z,81.34
2022-10-05T07:43:03.886Z,80.29
2022-10-05T07:46:14.750Z,80.14
2022-10-05T07:49:00.020Z,80.30
2022-10-05T07:51:34.753Z,79.00
2022-10-05T07:54:16.423Z,78.05
2022-10-05T07:56:45.910Z,78.44
2022-10-05T07:59:57.118Z,78.94
2022-10-05T08:03:57.177Z,78.46
2022-10-05T08:06:49.526Z,77.71
2022-10-05T08:09:30.550Z,76.82
2022-10-05T08:12:12.414Z,76.33
2022-10-05T08:14:51.264Z,76.24
2022-10-05T08:17:49.120Z,75.54
2022-10-05T08:20:18.854Z,75.87
2022-10-05T08:23:33.564Z,75.88
2022-10-05T08:26:22.716Z,75.91
2022-10-05T08:29:16.444Z,75.24
2022-10-05T08:31:45.874Z,75.22
2022-10-05T08:34:22.098Z,75.67
2022-10-05T08:37:05.099Z,76.08
2022-10-05T08:39:40.435Z,76.65
2022-10-05T08:42:44.699Z,76.08
2022-10-05T08:45:29.520Z,74.87
2022-10-05T08:48:17.463Z,74.14
2022-10-05T08:51:01.742Z,73.48
2022-10-05T08:53:42.366Z,73.53
2022-10-05T08:56:25.126Z,73.33
2022-10-05T08:59:15.996Z,72.27
2022-10-05T09:02:20.329Z,72.36
2022-10-05T09:05:11.624Z,72.90
2022-10-05T09:08:15.310Z,73.20
2022-10-05T09:10:53.442Z,72.32
2022-10-05T09:13:35.347Z,71.57
2022-10-05T09:16:23.905Z,71.58
2022-10-05T09:19:15.433Z,71.65
2022-10-05T09:22:00.809Z,71.62
2022-10-05T09:24:27.560Z,71.24
2022-10-05T09:27:00.316Z,70.18
2022-10-05T09:30:00.395Z,70.51
2022-10-05T09:32:39.951Z,70.76
2022-10-05T09:35:43.813Z,71.10
2022-10-05T09:38:31.736Z,70.26
2022-10-05T09:41:23.565Z,69.87
2022-10-05T09:44:13.053Z,70.11
2022-10-05T09:46:55.556Z,70.86
2022-10-05T09:49:28.680Z,70.93
2022-10-05T09:52:19.090Z,71.01
2022-10-05T09:55:10.839Z,71.04
2022-10-05T09:58:15.326Z,71.24
2022-10-05T10:01:09.633Z,71.52
2022-10-05T10:04:01.742Z,71.58
2022-10-05T10:06:52.714Z,71.99
2022-10-05T10:09:52.020Z,72.08
2022-10-05T10:12:37.427Z,72.03
2022-10-05T10:15:07.051Z,72.18
2022-10-05T10:17:52.449Z,71.82
2022-10-05T10:20:28.561Z,71.63
2022-10-05T10:23:10.551Z,71.37
2022-10-05T10:25:49.322Z,70.91
2022-10-05T10:28:26.308Z,71.82
2022-10-05T10:31:11.913Z,71.89
2022-10-05T10:33:44.255Z,71.67
2022-10-05T10:36:16.924Z,71.14
2022-10-05T10:39:00.166Z,70.84
2022-10-05T10:41:32.841Z,70.37
2022-10-05T10:44:03.013Z,70.55
2022-10-05T10:46:57.503Z,70.22
2022-10-05T10:49:46.081Z,69.20
2022-10-05T10:52:31.546Z,68.91
2022-10-05T10:55:23.101Z,68.91
2022-10-05T11:01:34.666Z,68.71
2022-10-05T11:04:13.516Z,68.62
2022-10-05T11:07:17.808Z,68.60
2022-10-05T11:10:12.337Z,68.45
2022-10-05T11:12:45.166Z,68.30
2022-10-05T11:15:37.464Z,68.05
2022-10-05T11:18:26.349Z,68.05
2022-10-05T11:21:04.794Z,68.39
2022-10-05T11:23:56.377Z,68.57
2022-10-05T11:26:56.599Z,68.65
2022-10-05T11:29:49.203Z,68.12
2022-10-05T11:32:27.670Z,67.82
2022-10-05T11:35:12.699Z,67.84
2022-10-05T11:38:04.211Z,68.27
2022-10-05T11:41:08.399Z,67.86
2022-10-05T11:44:03.134Z,67.95
2022-10-05T11:46:39.109Z,68.00
2022-10-05T11:49:15.692Z,67.72
2022-10-05T11:52:06.467Z,67.85
2022-10-05T11:55:09.350Z,67.75
2022-10-05T11:57:54.999Z,67.41
2022-10-05T12:00:30.646Z,67.52
2022-10-05T12:03:00.206Z,67.72
2022-10-05T12:05:36.487Z,68.10
2022-10-05T12:08:27.829Z,67.98
2022-10-05T12:11:08.712Z,68.09
2022-10-05T12:13:38.337Z,68.16
2022-10-05T12:16:26.922Z,68.48
2022-10-05T12:18:58.607Z,68.55
2022-10-05T12:22:03.759Z,68.01
2022-10-05T12:24:36.510Z,67.76
2022-10-05T12:27:16.035Z,67.47
2022-10-05T12:29:56.498Z,67.78
2022-10-05T12:32:56.891Z,67.99
2022-10-05T12:35:47.456Z,68.29
2022-10-05T12:38:25.548Z,68.46
2022-10-05T12:41:01.363Z,68.48
2022-10-05T12:43:31.140Z,68.58
2022-10-05T12:46:07.597Z,68.51
2022-10-05T12:48:49.336Z,68.72
2022-10-05T12:51:41.983Z,69.13
2022-10-05T12:54:14.827Z,69.16
2022-10-05T12:56:59.191Z,69.47
2022-10-05T12:59:44.147Z,69.01
2022-10-05T13:02:32.263Z,68.24
2022-10-05T13:05:11.054Z,67.91
2022-10-05T13:07:40.826Z,68.24
2022-10-05T13:10:28.223Z,68.58
2022-10-05T13:13:03.952Z,68.84
2022-10-05T13:15:56.692Z,68.98
2022-10-05T13:18:38.700Z,69.18
2022-10-05T13:21:20.643Z,69.24
2022-10-05T13:24:19.867Z,69.42
2022-10-05T13:26:49.663Z,69.40
2022-10-05T13:29:16.331Z,69.39
2022-10-05T13:31:50.317Z,69.66
2022-10-05T13:34:26.772Z,69.70
2022-10-05T13:37:02.786Z,70.12
2022-10-05T13:39:48.273Z,70.06
2022-10-05T13:42:18.304Z,69.93
2022-10-05T13:44:54.377Z,69.85
2022-10-05T13:47:23.919Z,69.65
2022-10-05T13:49:53.758Z,69.84
2022-10-05T13:53:06.094Z,69.51
2022-10-05T13:55:56.180Z,69.45
2022-10-05T13:58:50.368Z,69.18
2022-10-05T14:01:44.538Z,68.93
2022-10-05T14:04:19.844Z,69.04
2022-10-05T14:06:46.706Z,68.76
2022-10-05T14:09:27.281Z,68.76
2022-10-05T14:12:14.946Z,68.88
2022-10-05T14:14:51.230Z,69.03
2022-10-05T14:17:33.327Z,69.17
2022-10-05T14:20:01.044Z,69.52
2022-10-05T14:22:28.259Z,69.61
2022-10-05T14:24:56.819Z,69.27
2022-10-05T14:27:28.250Z,69.43
2022-10-05T14:29:56.737Z,69.82
2022-10-05T14:32:24.005Z,69.89
2022-10-05T14:35:05.124Z,70.11
2022-10-05T14:37:32.676Z,70.15
2022-10-05T14:40:03.385Z,70.34
2022-10-05T14:42:30.658Z,70.38
2022-10-05T14:45:01.501Z,70.29
2022-10-05T14:47:30.345Z,70.15
2022-10-05T14:50:21.356Z,70.30
2022-10-05T14:53:14.070Z,70.33
2022-10-05T14:55:44.472Z,70.36
2022-10-05T14:58:23.834Z,70.68
2022-10-05T15:01:03.868Z,70.49
2022-10-05T15:03:40.732Z,70.77
2022-10-05T15:06:12.663Z,71.42
2022-10-05T15:08:49.890Z,71.62
2022-10-05T15:11:25.631Z,72.15
2022-10-05T15:13:52.331Z,72.37
2022-10-05T15:16:19.798Z,72.58
2022-10-05T15:19:24.464Z,72.36
2022-10-05T15:22:18.736Z,72.81
2022-10-05T15:25:17.639Z,72.78
2022-10-05T15:28:01.024Z,73.11
2022-10-05T15:30:27.804Z,73.39
2022-10-05T15:33:39.237Z,73.67
2022-10-05T15:36:10.332Z,73.83
2022-10-05T15:38:39.892Z,74.10
2022-10-05T15:41:18.345Z,74.25
2022-10-05T15:43:50.430Z,74.24
2022-10-05T15:46:22.070Z,74.51
2022-10-05T15:49:08.427Z,74.79
2022-10-05T15:51:41.848Z,74.89
2022-10-05T15:54:42.198Z,75.04
2022-10-05T15:57:27.372Z,75.71
2022-10-05T15:59:58.549Z,76.17
2022-10-05T16:02:31.001Z,76.43
2022-10-05T16:05:57.292Z,76.93
2022-10-05T16:08:51.259Z,77.37
2022-10-05T16:11:32.196Z,77.78
2022-10-05T16:14:10.324Z,78.01
2022-10-05T16:16:49.349Z,78.34
2022-10-05T16:19:38.173Z,78.44
2022-10-05T16:22:43.553Z,78.93
2022-10-05T16:25:44.908Z,78.97
2022-10-05T16:28:15.507Z,79.11
2022-10-05T16:30:59.192Z,79.32
2022-10-05T16:33:54.389Z,79.15
2022-10-05T16:36:40.367Z,79.44
2022-10-05T16:39:24.194Z,79.52
2022-10-05T16:42:14.197Z,79.53
2022-10-05T16:45:06.859Z,79.24
2022-10-05T16:47:47.019Z,79.71
2022-10-05T16:50:32.331Z,79.53
2022-10-05T16:53:25.592Z,79.64
2022-10-05T16:55:54.523Z,79.45
2022-10-05T16:58:27.379Z,79.58
2022-10-05T17:01:08.788Z,79.53
2022-10-05T17:03:53.988Z,79.60
2022-10-05T17:06:46.519Z,79.46
2022-10-05T17:09:16.011Z,79.67
2022-10-05T17:11:50.056Z,79.94
2022-10-05T17:14:35.141Z,79.93
2022-10-05T17:17:20.706Z,80.22
2022-10-05T17:20:01.166Z,80.16
2022-10-05T17:22:36.449Z,80.24
2022-10-05T17:25:18.333Z,80.33
2022-10-05T17:28:15.164Z,80.31
2022-10-05T17:30:50.502Z,80.18
2022-10-05T17:33:29.087Z,80.13
2022-10-05T17:36:08.585Z,80.27
2022-10-05T17:38:35.244Z,80.11
2022-10-05T17:41:04.834Z,80.59
2022-10-05T17:43:32.254Z,80.34
2022-10-05T17:46:00.737Z,80.41
2022-10-05T17:48:49.309Z,80.39
2022-10-05T17:51:47.939Z,80.49
2022-10-05T17:54:40.414Z,80.51
2022-10-05T17:57:07.102Z,80.54
2022-10-05T17:59:39.274Z,80.49
2022-10-05T18:02:19.696Z,80.25
2022-10-05T18:05:14.529Z,80.44
2022-10-05T18:07:42.124Z,80.24
2022-10-05T18:10:11.834Z,80.12
2022-10-05T18:12:41.508Z,80.29
2022-10-05T18:15:08.143Z,80.21
2022-10-05T18:17:46.286Z,80.11
2022-10-05T18:20:28.646Z,79.99
2022-10-05T18:23:07.616Z,79.97
2022-10-05T18:25:43.432Z,79.76
2022-10-05T18:28:22.479Z,79.65
2022-10-05T18:31:22.086Z,79.90
2022-10-05T18:34:26.376Z,79.81
2022-10-05T18:37:16.243Z,79.55
2022-10-05T18:39:46.150Z,79.66
2022-10-05T18:42:39.668Z,79.54
2022-10-05T18:45:26.790Z,79.73
2022-10-05T18:47:53.434Z,79.60
2022-10-05T18:50:27.418Z,79.81
2022-10-05T18:53:06.256Z,79.78
2022-10-05T18:55:38.252Z,79.59
2022-10-05T18:58:41.414Z,79.65
2022-10-05T19:01:32.365Z,79.89
2022-10-05T19:04:04.605Z,79.97
2022-10-05T19:06:36.631Z,79.88
2022-10-05T19:09:17.365Z,80.15
2022-10-05T19:12:41.420Z,79.96
2022-10-05T19:15:20.398Z,80.12
2022-10-05T19:17:49.846Z,80.04
2022-10-05T19:20:18.468Z,80.28
2022-10-05T19:22:58.064Z,80.11
2022-10-05T19:25:28.300Z,80.19
2022-10-05T19:28:30.500Z,80.21
2022-10-05T19:31:12.913Z,80.27
2022-10-05T19:34:06.846Z,80.30
2022-10-05T19:36:40.298Z,80.22
2022-10-05T19:39:34.494Z,80.43
2022-10-05T19:42:12.391Z,80.38
2022-10-05T19:44:59.861Z,80.24
2022-10-05T19:47:42.684Z,80.28
2022-10-05T19:50:20.950Z,80.29
2022-10-05T19:52:50.338Z,80.34
2022-10-05T19:55:26.441Z,80.57
2022-10-05T19:57:54.714Z,80.34
2022-10-05T20:00:21.516Z,80.66
2022-10-05T20:02:50.603Z,80.90
2022-10-05T20:05:17.465Z,80.75
2022-10-05T20:07:44.170Z,81.00
2022-10-05T20:10:22.907Z,81.07
2022-10-05T20:12:51.092Z,81.11
2022-10-05T20:15:40.969Z,81.22
2022-10-05T20:20:38.438Z,81.55
2022-10-05T20:23:30.473Z,81.73
2022-10-05T20:26:15.925Z,81.68
2022-10-05T20:28:44.599Z,81.79
2022-10-05T20:31:12.473Z,81.75
2022-10-05T20:33:40.237Z,81.92
2022-10-05T20:36:08.660Z,81.82
2022-10-05T20:38:40.627Z,81.88
2022-10-05T20:41:07.823Z,81.98
2022-10-05T20:43:35.802Z,82.10
2022-10-05T20:46:02.579Z,82.00
2022-10-05T20:48:29.683Z,82.02
2022-10-05T20:50:56.645Z,82.28
2022-10-05T20:53:23.356Z,82.00
2022-10-05T20:55:50.027Z,81.98
2022-10-05T20:58:17.979Z,82.09
2022-10-05T21:01:03.325Z,82.14
2022-10-05T21:03:30.254Z,82.08
2022-10-05T21:05:56.962Z,82.14
2022-10-05T21:08:25.267Z,82.05
2022-10-05T21:10:52.152Z,82.12
2022-10-05T21:13:18.757Z,82.18
2022-10-05T21:15:45.461Z,82.26
2022-10-05T21:18:12.078Z,82.16
2022-10-05T21:20:38.893Z,82.42
2022-10-05T21:23:05.496Z,82.37
2022-10-05T21:25:33.490Z,82.38
2022-10-05T21:28:00.269Z,82.61
2022-10-05T21:30:27.021Z,82.59
2022-10-05T21:35:21.511Z,82.73
2022-10-05T21:37:48.244Z,82.75
2022-10-05T21:40:16.249Z,82.55
2022-10-05T21:42:43.124Z,82.78
2022-10-05T21:45:10.403Z,82.75
2022-10-05T21:47:37.277Z,82.97
2022-10-05T21:50:05.287Z,83.16
2022-10-05T21:52:32.823Z,83.13
2022-10-05T21:54:59.604Z,83.01
2022-10-05T21:57:26.484Z,83.20
2022-10-05T21:59:53.211Z,83.29
2022-10-05T22:02:19.955Z,83.20
2022-10-05T22:04:46.687Z,83.17
2022-10-05T22:07:20.271Z,83.09
2022-10-05T22:09:50.644Z,83.19
2022-10-05T22:12:17.741Z,83.08
2022-10-05T22:14:44.547Z,83.09
2022-10-05T22:17:14.917Z,83.22
2022-10-05T22:19:41.830Z,83.10
2022-10-05T22:22:11.795Z,82.78
2022-10-05T22:24:38.801Z,82.92
2022-10-05T22:27:05.497Z,82.79
2022-10-05T22:29:32.364Z,82.86
2022-10-05T22:31:59.078Z,82.52
2022-10-05T22:34:25.888Z,82.51
2022-10-05T22:36:53.036Z,82.59
2022-10-05T22:39:19.894Z,82.38
2022-10-05T22:41:46.925Z,82.17
2022-10-05T22:44:13.595Z,82.34
2022-10-05T22:46:40.204Z,82.16
2022-10-05T22:49:06.897Z,82.12
2022-10-05T22:51:33.504Z,82.10
2022-10-05T22:54:00.176Z,82.02
2022-10-05T22:56:26.800Z,82.12
2022-10-05T22:58:53.498Z,81.97
2022-10-05T23:01:20.205Z,82.07
2022-10-05T23:03:46.964Z,81.91
2022-10-05T23:06:20.148Z,81.77
2022-10-05T23:08:47.065Z,81.73
2022-10-05T23:11:15.760Z,81.83
2022-10-05T23:13:42.465Z,81.60
2022-10-05T23:16:13.065Z,81.40
2022-10-05T23:18:39.928Z,81.40
2022-10-05T23:21:09.755Z,81.18
2022-10-05T23:23:37.480Z,81.21
2022-10-05T23:26:04.946Z,81.00
2022-10-05T23:28:32.103Z,80.70
2022-10-05T23:31:00.252Z,80.81
2022-10-05T23:33:27.695Z,80.69
2022-10-05T23:36:01.733Z,80.54
2022-10-05T23:38:28.741Z,80.29
2022-10-05T23:40:56.279Z,80.30
2022-10-05T23:43:22.996Z,80.34
2022-10-05T23:45:49.643Z,80.17
2022-10-05T23:48:16.441Z,80.35
2022-10-05T23:50:45.333Z,80.31
2022-10-05T23:53:12.079Z,80.20
2022-10-05T23:55:38.673Z,80.19
2022-10-05T23:58:06.118Z,80.27
